sensor_id;sensor_type;location;lat;lon;timestamp;P1;durP1;ratioP1;P2;durP2;ratioP2
54452;SDS011;40363;52.270;10.546;2023-08-20T00:01:05;13.05;;;9.93;;
54452;SDS011;40363;52.270;10.546;2023-08-20T00:03:45;18.80;;;10.25;;
54452;SDS011;40363;52.270;10.546;2023-08-20T00:06:26;16.77;;;11.10;;
54452;SDS011;40363;52.270;10.546;2023-08-20T00:08:57;18.90;;;10.77;;
54452;SDS011;40363;52.270;10.546;2023-08-20T00:11:31;15.82;;;11.00;;
54452;SDS011;40363;52.270;10.546;2023-08-20T00:13:59;15.73;;;11.55;;
54452;SDS011;40363;52.270;10.546;2023-08-20T00:16:28;14.70;;;10.38;;
54452;SDS011;40363;52.270;10.546;2023-08-20T00:18:57;17.35;;;11.52;;
54452;SDS011;40363;52.270;10.546;2023-08-20T00:21:24;14.18;;;10.55;;
54452;SDS011;40363;52.270;10.546;2023-08-20T00:23:57;16.30;;;11.52;;
54452;SDS011;40363;52.270;10.546;2023-08-20T00:26:29;16.98;;;11.80;;
54452;SDS011;40363;52.270;10.546;2023-08-20T00:29:00;15.57;;;11.57;;
54452;SDS011;40363;52.270;10.546;2023-08-20T00:31:31;14.93;;;10.65;;
54452;SDS011;40363;52.270;10.546;2023-08-20T00:34:07;18.27;;;12.32;;
54452;SDS011;40363;52.270;10.546;2023-08-20T00:36:38;18.63;;;13.02;;
54452;SDS011;40363;52.270;10.546;2023-08-20T00:39:12;20.63;;;13.15;;
54452;SDS011;40363;52.270;10.546;2023-08-20T00:44:21;19.73;;;13.48;;
54452;SDS011;40363;52.270;10.546;2023-08-20T00:46:49;22.15;;;14.38;;
54452;SDS011;40363;52.270;10.546;2023-08-20T00:49:24;18.88;;;12.82;;
54452;SDS011;40363;52.270;10.546;2023-08-20T00:52:00;19.98;;;13.35;;
54452;SDS011;40363;52.270;10.546;2023-08-20T00:54:29;21.65;;;14.35;;
54452;SDS011;40363;52.270;10.546;2023-08-20T00:57:03;21.75;;;13.55;;
54452;SDS011;40363;52.270;10.546;2023-08-20T00:59:39;17.80;;;13.10;;
54452;SDS011;40363;52.270;10.546;2023-08-20T01:02:10;18.08;;;12.70;;
54452;SDS011;40363;52.270;10.546;2023-08-20T01:04:37;22.38;;;13.35;;
54452;SDS011;40363;52.270;10.546;2023-08-20T01:07:08;18.17;;;12.30;;
54452;SDS011;40363;52.270;10.546;2023-08-20T01:09:54;20.67;;;13.77;;
54452;SDS011;40363;52.270;10.546;2023-08-20T01:12:40;22.20;;;13.45;;
54452;SDS011;40363;52.270;10.546;2023-08-20T01:15:18;20.13;;;13.60;;
54452;SDS011;40363;52.270;10.546;2023-08-20T01:17:51;17.25;;;11.98;;
54452;SDS011;40363;52.270;10.546;2023-08-20T01:20:21;18.67;;;12.73;;
54452;SDS011;40363;52.270;10.546;2023-08-20T01:29:39;19.90;;;12.20;;
54452;SDS011;40363;52.270;10.546;2023-08-20T01:32:07;17.10;;;12.00;;
54452;SDS011;40363;52.270;10.546;2023-08-20T01:34:39;18.83;;;13.30;;
54452;SDS011;40363;52.270;10.546;2023-08-20T01:37:13;20.63;;;12.73;;
54452;SDS011;40363;52.270;10.546;2023-08-20T01:39:43;19.83;;;13.10;;
54452;SDS011;40363;52.270;10.546;2023-08-20T01:42:11;20.65;;;12.52;;
54452;SDS011;40363;52.270;10.546;2023-08-20T01:44:41;20.98;;;12.27;;
54452;SDS011;40363;52.270;10.546;2023-08-20T01:47:09;18.10;;;11.20;;
54452;SDS011;40363;52.270;10.546;2023-08-20T01:49:35;22.92;;;13.20;;
54452;SDS011;40363;52.270;10.546;2023-08-20T01:52:02;17.83;;;12.07;;
54452;SDS011;40363;52.270;10.546;2023-08-20T01:54:30;23.17;;;12.43;;
54452;SDS011;40363;52.270;10.546;2023-08-20T01:56:58;18.65;;;11.60;;
54452;SDS011;40363;52.270;10.546;2023-08-20T01:59:26;18.80;;;11.18;;
54452;SDS011;40363;52.270;10.546;2023-08-20T02:01:56;19.85;;;12.15;;
54452;SDS011;40363;52.270;10.546;2023-08-20T02:04:23;19.38;;;11.57;;
54452;SDS011;40363;52.270;10.546;2023-08-20T02:06:53;19.45;;;12.43;;
54452;SDS011;40363;52.270;10.546;2023-08-20T02:09:21;23.48;;;12.48;;
54452;SDS011;40363;52.270;10.546;2023-08-20T02:11:49;21.92;;;13.18;;
54452;SDS011;40363;52.270;10.546;2023-08-20T02:14:20;17.38;;;11.82;;
54452;SDS011;40363;52.270;10.546;2023-08-20T02:16:50;16.13;;;11.05;;
54452;SDS011;40363;52.270;10.546;2023-08-20T02:19:19;17.88;;;12.00;;
54452;SDS011;40363;52.270;10.546;2023-08-20T02:21:49;20.40;;;11.75;;
54452;SDS011;40363;52.270;10.546;2023-08-20T02:24:16;17.95;;;12.05;;
54452;SDS011;40363;52.270;10.546;2023-08-20T02:26:44;20.63;;;13.52;;
54452;SDS011;40363;52.270;10.546;2023-08-20T02:29:12;18.08;;;12.20;;
54452;SDS011;40363;52.270;10.546;2023-08-20T02:31:41;21.73;;;13.85;;
54452;SDS011;40363;52.270;10.546;2023-08-20T02:34:08;19.20;;;12.10;;
54452;SDS011;40363;52.270;10.546;2023-08-20T02:36:37;20.92;;;13.77;;
54452;SDS011;40363;52.270;10.546;2023-08-20T02:39:04;23.10;;;13.80;;
54452;SDS011;40363;52.270;10.546;2023-08-20T02:41:36;20.58;;;13.75;;
54452;SDS011;40363;52.270;10.546;2023-08-20T02:44:03;19.17;;;12.40;;
54452;SDS011;40363;52.270;10.546;2023-08-20T02:46:31;22.33;;;12.90;;
54452;SDS011;40363;52.270;10.546;2023-08-20T02:48:59;21.45;;;11.90;;
54452;SDS011;40363;52.270;10.546;2023-08-20T02:51:26;20.25;;;12.57;;
54452;SDS011;40363;52.270;10.546;2023-08-20T02:53:58;22.33;;;13.52;;
54452;SDS011;40363;52.270;10.546;2023-08-20T02:56:28;21.77;;;13.27;;
54452;SDS011;40363;52.270;10.546;2023-08-20T02:58:59;17.27;;;12.57;;
54452;SDS011;40363;52.270;10.546;2023-08-20T03:01:27;19.50;;;12.73;;
54452;SDS011;40363;52.270;10.546;2023-08-20T03:03:59;16.40;;;11.48;;
54452;SDS011;40363;52.270;10.546;2023-08-20T03:06:36;17.38;;;11.48;;
54452;SDS011;40363;52.270;10.546;2023-08-20T03:09:06;19.95;;;12.23;;
54452;SDS011;40363;52.270;10.546;2023-08-20T03:11:34;19.15;;;12.25;;
54452;SDS011;40363;52.270;10.546;2023-08-20T03:14:02;19.55;;;11.55;;
54452;SDS011;40363;52.270;10.546;2023-08-20T03:16:30;20.63;;;12.18;;
54452;SDS011;40363;52.270;10.546;2023-08-20T03:18:57;20.92;;;12.57;;
54452;SDS011;40363;52.270;10.546;2023-08-20T03:21:27;22.13;;;13.35;;
54452;SDS011;40363;52.270;10.546;2023-08-20T03:23:54;20.63;;;12.25;;
54452;SDS011;40363;52.270;10.546;2023-08-20T03:26:22;18.75;;;12.35;;
54452;SDS011;40363;52.270;10.546;2023-08-20T03:28:49;20.65;;;12.88;;
54452;SDS011;40363;52.270;10.546;2023-08-20T03:31:16;21.85;;;12.32;;
54452;SDS011;40363;52.270;10.546;2023-08-20T03:33:44;21.20;;;12.93;;
54452;SDS011;40363;52.270;10.546;2023-08-20T03:36:11;19.88;;;11.70;;
54452;SDS011;40363;52.270;10.546;2023-08-20T03:38:37;18.77;;;12.85;;
54452;SDS011;40363;52.270;10.546;2023-08-20T03:41:07;20.25;;;12.65;;
54452;SDS011;40363;52.270;10.546;2023-08-20T03:43:36;25.65;;;12.30;;
54452;SDS011;40363;52.270;10.546;2023-08-20T03:46:04;21.33;;;12.25;;
54452;SDS011;40363;52.270;10.546;2023-08-20T03:48:30;22.45;;;13.85;;
54452;SDS011;40363;52.270;10.546;2023-08-20T03:50:58;21.95;;;13.05;;
54452;SDS011;40363;52.270;10.546;2023-08-20T03:53:27;16.98;;;11.32;;
54452;SDS011;40363;52.270;10.546;2023-08-20T03:55:54;19.98;;;10.85;;
54452;SDS011;40363;52.270;10.546;2023-08-20T03:58:21;21.00;;;11.57;;
54452;SDS011;40363;52.270;10.546;2023-08-20T04:00:51;20.15;;;13.13;;
54452;SDS011;40363;52.270;10.546;2023-08-20T04:03:20;22.08;;;13.45;;
54452;SDS011;40363;52.270;10.546;2023-08-20T04:05:49;23.13;;;13.18;;
54452;SDS011;40363;52.270;10.546;2023-08-20T04:08:19;17.25;;;11.38;;
54452;SDS011;40363;52.270;10.546;2023-08-20T04:10:47;23.77;;;13.63;;
54452;SDS011;40363;52.270;10.546;2023-08-20T04:13:14;21.77;;;12.77;;
54452;SDS011;40363;52.270;10.546;2023-08-20T04:15:44;23.95;;;13.73;;
54452;SDS011;40363;52.270;10.546;2023-08-20T04:18:12;17.77;;;12.25;;
54452;SDS011;40363;52.270;10.546;2023-08-20T04:20:39;24.00;;;13.02;;
54452;SDS011;40363;52.270;10.546;2023-08-20T04:23:06;21.20;;;12.73;;
54452;SDS011;40363;52.270;10.546;2023-08-20T04:25:35;20.27;;;12.15;;
54452;SDS011;40363;52.270;10.546;2023-08-20T04:28:02;21.77;;;11.85;;
54452;SDS011;40363;52.270;10.546;2023-08-20T04:30:30;19.75;;;12.20;;
54452;SDS011;40363;52.270;10.546;2023-08-20T04:32:57;19.17;;;11.43;;
54452;SDS011;40363;52.270;10.546;2023-08-20T04:35:26;20.25;;;12.68;;
54452;SDS011;40363;52.270;10.546;2023-08-20T04:37:53;19.83;;;12.23;;
54452;SDS011;40363;52.270;10.546;2023-08-20T04:40:20;18.45;;;12.07;;
54452;SDS011;40363;52.270;10.546;2023-08-20T04:42:48;18.98;;;12.25;;
54452;SDS011;40363;52.270;10.546;2023-08-20T04:45:16;17.90;;;10.38;;
54452;SDS011;40363;52.270;10.546;2023-08-20T04:47:44;19.58;;;12.05;;
54452;SDS011;40363;52.270;10.546;2023-08-20T04:50:13;18.92;;;11.25;;
54452;SDS011;40363;52.270;10.546;2023-08-20T04:52:43;19.77;;;11.02;;
54452;SDS011;40363;52.270;10.546;2023-08-20T04:55:12;16.45;;;9.82;;
54452;SDS011;40363;52.270;10.546;2023-08-20T04:57:44;24.27;;;12.07;;
54452;SDS011;40363;52.270;10.546;2023-08-20T05:00:15;20.17;;;11.98;;
54452;SDS011;40363;52.270;10.546;2023-08-20T05:02:50;20.45;;;10.95;;
54452;SDS011;40363;52.270;10.546;2023-08-20T05:05:22;19.60;;;11.75;;
54452;SDS011;40363;52.270;10.546;2023-08-20T05:07:56;17.30;;;11.18;;
54452;SDS011;40363;52.270;10.546;2023-08-20T05:10:24;20.00;;;11.80;;
54452;SDS011;40363;52.270;10.546;2023-08-20T05:12:52;17.00;;;11.68;;
54452;SDS011;40363;52.270;10.546;2023-08-20T05:15:19;16.00;;;11.88;;
54452;SDS011;40363;52.270;10.546;2023-08-20T05:17:49;17.63;;;12.52;;
54452;SDS011;40363;52.270;10.546;2023-08-20T05:22:56;17.52;;;10.65;;
54452;SDS011;40363;52.270;10.546;2023-08-20T05:25:22;18.88;;;11.70;;
54452;SDS011;40363;52.270;10.546;2023-08-20T05:27:49;17.23;;;10.40;;
54452;SDS011;40363;52.270;10.546;2023-08-20T05:30:16;17.70;;;10.77;;
54452;SDS011;40363;52.270;10.546;2023-08-20T05:32:43;15.70;;;10.45;;
54452;SDS011;40363;52.270;10.546;2023-08-20T05:35:10;17.33;;;10.07;;
54452;SDS011;40363;52.270;10.546;2023-08-20T05:37:37;16.92;;;10.82;;
54452;SDS011;40363;52.270;10.546;2023-08-20T05:40:05;15.65;;;9.77;;
54452;SDS011;40363;52.270;10.546;2023-08-20T05:42:34;20.15;;;11.15;;
54452;SDS011;40363;52.270;10.546;2023-08-20T05:45:00;18.60;;;11.40;;
54452;SDS011;40363;52.270;10.546;2023-08-20T05:47:27;16.92;;;10.07;;
54452;SDS011;40363;52.270;10.546;2023-08-20T05:49:53;16.23;;;9.65;;
54452;SDS011;40363;52.270;10.546;2023-08-20T05:52:20;13.88;;;8.70;;
54452;SDS011;40363;52.270;10.546;2023-08-20T05:54:47;13.25;;;7.57;;
54452;SDS011;40363;52.270;10.546;2023-08-20T05:57:15;13.68;;;7.80;;
54452;SDS011;40363;52.270;10.546;2023-08-20T05:59:41;13.35;;;7.68;;
54452;SDS011;40363;52.270;10.546;2023-08-20T06:02:08;9.10;;;6.38;;
54452;SDS011;40363;52.270;10.546;2023-08-20T06:04:35;12.40;;;8.25;;
54452;SDS011;40363;52.270;10.546;2023-08-20T06:07:02;10.48;;;6.10;;
54452;SDS011;40363;52.270;10.546;2023-08-20T06:09:28;12.38;;;6.97;;
54452;SDS011;40363;52.270;10.546;2023-08-20T06:11:55;10.27;;;5.95;;
54452;SDS011;40363;52.270;10.546;2023-08-20T06:14:23;10.18;;;6.47;;
54452;SDS011;40363;52.270;10.546;2023-08-20T06:16:50;9.85;;;6.40;;
54452;SDS011;40363;52.270;10.546;2023-08-20T06:19:16;10.82;;;6.30;;
54452;SDS011;40363;52.270;10.546;2023-08-20T06:21:43;12.30;;;6.32;;
54452;SDS011;40363;52.270;10.546;2023-08-20T06:24:10;11.10;;;6.30;;
54452;SDS011;40363;52.270;10.546;2023-08-20T06:26:36;9.50;;;5.45;;
54452;SDS011;40363;52.270;10.546;2023-08-20T06:29:03;8.85;;;5.45;;
54452;SDS011;40363;52.270;10.546;2023-08-20T06:31:31;7.93;;;5.50;;
54452;SDS011;40363;52.270;10.546;2023-08-20T06:33:58;9.05;;;5.70;;
54452;SDS011;40363;52.270;10.546;2023-08-20T06:36:24;9.20;;;5.65;;
54452;SDS011;40363;52.270;10.546;2023-08-20T06:38:51;8.30;;;4.70;;
54452;SDS011;40363;52.270;10.546;2023-08-20T06:41:18;6.13;;;3.88;;
54452;SDS011;40363;52.270;10.546;2023-08-20T06:43:46;8.27;;;3.72;;
54452;SDS011;40363;52.270;10.546;2023-08-20T06:46:12;5.90;;;3.55;;
54452;SDS011;40363;52.270;10.546;2023-08-20T06:48:40;8.98;;;4.00;;
54452;SDS011;40363;52.270;10.546;2023-08-20T06:51:08;7.13;;;4.20;;
54452;SDS011;40363;52.270;10.546;2023-08-20T06:53:37;5.03;;;3.35;;
54452;SDS011;40363;52.270;10.546;2023-08-20T06:56:04;9.27;;;4.32;;
54452;SDS011;40363;52.270;10.546;2023-08-20T06:58:30;6.40;;;4.05;;
54452;SDS011;40363;52.270;10.546;2023-08-20T07:00:57;4.88;;;3.88;;
54452;SDS011;40363;52.270;10.546;2023-08-20T07:03:32;4.22;;;3.67;;
54452;SDS011;40363;52.270;10.546;2023-08-20T07:06:00;4.13;;;3.63;;
54452;SDS011;40363;52.270;10.546;2023-08-20T07:08:27;6.22;;;3.97;;
54452;SDS011;40363;52.270;10.546;2023-08-20T07:10:53;6.63;;;4.28;;
54452;SDS011;40363;52.270;10.546;2023-08-20T07:13:20;5.70;;;3.78;;
54452;SDS011;40363;52.270;10.546;2023-08-20T07:15:47;5.85;;;3.83;;
54452;SDS011;40363;52.270;10.546;2023-08-20T07:18:13;7.07;;;4.35;;
54452;SDS011;40363;52.270;10.546;2023-08-20T07:20:41;9.80;;;3.60;;
54452;SDS011;40363;52.270;10.546;2023-08-20T07:23:09;9.57;;;3.80;;
54452;SDS011;40363;52.270;10.546;2023-08-20T07:25:37;4.05;;;3.35;;
54452;SDS011;40363;52.270;10.546;2023-08-20T07:28:04;5.80;;;3.63;;
54452;SDS011;40363;52.270;10.546;2023-08-20T07:30:30;5.82;;;3.55;;
54452;SDS011;40363;52.270;10.546;2023-08-20T07:32:57;4.72;;;3.15;;
54452;SDS011;40363;52.270;10.546;2023-08-20T07:35:24;8.20;;;3.88;;
54452;SDS011;40363;52.270;10.546;2023-08-20T07:37:51;7.20;;;3.63;;
54452;SDS011;40363;52.270;10.546;2023-08-20T07:40:19;8.30;;;3.78;;
54452;SDS011;40363;52.270;10.546;2023-08-20T07:42:46;6.70;;;3.78;;
54452;SDS011;40363;52.270;10.546;2023-08-20T07:45:13;6.45;;;3.85;;
54452;SDS011;40363;52.270;10.546;2023-08-20T07:47:40;5.25;;;3.72;;
54452;SDS011;40363;52.270;10.546;2023-08-20T07:50:07;7.35;;;4.05;;
54452;SDS011;40363;52.270;10.546;2023-08-20T07:52:34;5.25;;;3.30;;
54452;SDS011;40363;52.270;10.546;2023-08-20T07:55:00;6.70;;;3.50;;
54452;SDS011;40363;52.270;10.546;2023-08-20T07:57:28;6.78;;;3.25;;
54452;SDS011;40363;52.270;10.546;2023-08-20T07:59:55;6.18;;;3.30;;
54452;SDS011;40363;52.270;10.546;2023-08-20T08:02:22;5.15;;;3.05;;
54452;SDS011;40363;52.270;10.546;2023-08-20T08:04:48;5.57;;;3.58;;
54452;SDS011;40363;52.270;10.546;2023-08-20T08:07:15;5.57;;;2.83;;
54452;SDS011;40363;52.270;10.546;2023-08-20T08:09:42;6.00;;;3.13;;
54452;SDS011;40363;52.270;10.546;2023-08-20T08:12:08;7.45;;;3.35;;
54452;SDS011;40363;52.270;10.546;2023-08-20T08:14:36;6.55;;;3.72;;
54452;SDS011;40363;52.270;10.546;2023-08-20T08:17:03;6.30;;;3.80;;
54452;SDS011;40363;52.270;10.546;2023-08-20T08:19:30;4.25;;;3.25;;
54452;SDS011;40363;52.270;10.546;2023-08-20T08:21:56;5.38;;;4.05;;
54452;SDS011;40363;52.270;10.546;2023-08-20T08:24:23;6.07;;;3.58;;
54452;SDS011;40363;52.270;10.546;2023-08-20T08:26:50;5.65;;;3.28;;
54452;SDS011;40363;52.270;10.546;2023-08-20T08:29:16;7.00;;;3.97;;
54452;SDS011;40363;52.270;10.546;2023-08-20T08:31:44;6.13;;;3.75;;
54452;SDS011;40363;52.270;10.546;2023-08-20T08:34:11;4.07;;;3.67;;
54452;SDS011;40363;52.270;10.546;2023-08-20T08:36:37;5.25;;;3.42;;
54452;SDS011;40363;52.270;10.546;2023-08-20T08:39:04;6.05;;;3.25;;
54452;SDS011;40363;52.270;10.546;2023-08-20T08:41:32;8.30;;;3.60;;
54452;SDS011;40363;52.270;10.546;2023-08-20T08:44:03;5.45;;;3.65;;
54452;SDS011;40363;52.270;10.546;2023-08-20T08:46:32;5.18;;;3.28;;
54452;SDS011;40363;52.270;10.546;2023-08-20T08:49:02;3.95;;;3.28;;
54452;SDS011;40363;52.270;10.546;2023-08-20T08:51:30;6.25;;;3.10;;
54452;SDS011;40363;52.270;10.546;2023-08-20T08:53:57;5.60;;;3.10;;
54452;SDS011;40363;52.270;10.546;2023-08-20T08:56:25;5.15;;;3.35;;
54452;SDS011;40363;52.270;10.546;2023-08-20T08:58:53;5.13;;;3.38;;
54452;SDS011;40363;52.270;10.546;2023-08-20T09:01:20;6.75;;;3.20;;
54452;SDS011;40363;52.270;10.546;2023-08-20T09:03:47;4.90;;;2.97;;
54452;SDS011;40363;52.270;10.546;2023-08-20T09:06:16;5.45;;;3.00;;
54452;SDS011;40363;52.270;10.546;2023-08-20T09:08:42;5.60;;;3.40;;
54452;SDS011;40363;52.270;10.546;2023-08-20T09:11:09;5.18;;;2.97;;
54452;SDS011;40363;52.270;10.546;2023-08-20T09:13:36;6.18;;;3.33;;
54452;SDS011;40363;52.270;10.546;2023-08-20T09:16:04;5.88;;;3.13;;
54452;SDS011;40363;52.270;10.546;2023-08-20T09:18:32;3.70;;;2.35;;
54452;SDS011;40363;52.270;10.546;2023-08-20T09:20:59;5.55;;;2.92;;
54452;SDS011;40363;52.270;10.546;2023-08-20T09:23:28;4.28;;;2.70;;
54452;SDS011;40363;52.270;10.546;2023-08-20T09:25:56;4.53;;;2.60;;
54452;SDS011;40363;52.270;10.546;2023-08-20T09:28:22;7.00;;;3.35;;
54452;SDS011;40363;52.270;10.546;2023-08-20T09:30:56;5.55;;;3.10;;
54452;SDS011;40363;52.270;10.546;2023-08-20T09:33:23;5.60;;;2.75;;
54452;SDS011;40363;52.270;10.546;2023-08-20T09:35:50;3.63;;;2.28;;
54452;SDS011;40363;52.270;10.546;2023-08-20T09:38:18;3.08;;;2.58;;
54452;SDS011;40363;52.270;10.546;2023-08-20T09:40:48;3.67;;;2.53;;
54452;SDS011;40363;52.270;10.546;2023-08-20T09:43:16;2.72;;;2.33;;
54452;SDS011;40363;52.270;10.546;2023-08-20T09:45:43;3.83;;;2.40;;
54452;SDS011;40363;52.270;10.546;2023-08-20T09:48:12;3.72;;;2.38;;
54452;SDS011;40363;52.270;10.546;2023-08-20T09:50:43;3.55;;;2.28;;
54452;SDS011;40363;52.270;10.546;2023-08-20T09:53:15;3.28;;;2.05;;
54452;SDS011;40363;52.270;10.546;2023-08-20T09:55:49;6.88;;;2.25;;
54452;SDS011;40363;52.270;10.546;2023-08-20T09:58:18;3.60;;;2.40;;
54452;SDS011;40363;52.270;10.546;2023-08-20T10:00:50;4.70;;;2.47;;
54452;SDS011;40363;52.270;10.546;2023-08-20T10:03:18;3.58;;;2.50;;
54452;SDS011;40363;52.270;10.546;2023-08-20T10:05:48;3.80;;;2.78;;
54452;SDS011;40363;52.270;10.546;2023-08-20T10:08:15;3.28;;;2.00;;
54452;SDS011;40363;52.270;10.546;2023-08-20T10:10:43;5.50;;;2.40;;
54452;SDS011;40363;52.270;10.546;2023-08-20T10:13:12;3.20;;;2.25;;
54452;SDS011;40363;52.270;10.546;2023-08-20T10:15:39;4.97;;;2.10;;
54452;SDS011;40363;52.270;10.546;2023-08-20T10:18:07;3.25;;;2.00;;
54452;SDS011;40363;52.270;10.546;2023-08-20T10:20:34;3.10;;;2.00;;
54452;SDS011;40363;52.270;10.546;2023-08-20T10:23:02;3.17;;;1.85;;
54452;SDS011;40363;52.270;10.546;2023-08-20T10:25:29;4.95;;;2.50;;
54452;SDS011;40363;52.270;10.546;2023-08-20T10:33:29;3.53;;;2.58;;
54452;SDS011;40363;52.270;10.546;2023-08-20T10:35:56;4.45;;;2.22;;
54452;SDS011;40363;52.270;10.546;2023-08-20T10:38:22;3.92;;;2.65;;
54452;SDS011;40363;52.270;10.546;2023-08-20T10:40:51;2.92;;;2.33;;
54452;SDS011;40363;52.270;10.546;2023-08-20T10:43:27;3.40;;;1.92;;
54452;SDS011;40363;52.270;10.546;2023-08-20T10:46:10;4.00;;;1.98;;
54452;SDS011;40363;52.270;10.546;2023-08-20T10:48:40;3.25;;;2.03;;
54452;SDS011;40363;52.270;10.546;2023-08-20T10:51:11;3.92;;;1.90;;
54452;SDS011;40363;52.270;10.546;2023-08-20T10:53:39;2.90;;;1.73;;
54452;SDS011;40363;52.270;10.546;2023-08-20T10:56:10;4.22;;;2.47;;
54452;SDS011;40363;52.270;10.546;2023-08-20T10:58:42;4.65;;;2.75;;
54452;SDS011;40363;52.270;10.546;2023-08-20T11:01:16;3.03;;;1.85;;
54452;SDS011;40363;52.270;10.546;2023-08-20T11:03:45;2.47;;;1.65;;
54452;SDS011;40363;52.270;10.546;2023-08-20T11:06:13;2.83;;;1.98;;
54452;SDS011;40363;52.270;10.546;2023-08-20T11:08:41;4.57;;;2.13;;
54452;SDS011;40363;52.270;10.546;2023-08-20T11:11:10;2.80;;;1.80;;
54452;SDS011;40363;52.270;10.546;2023-08-20T11:13:37;4.25;;;1.95;;
54452;SDS011;40363;52.270;10.546;2023-08-20T11:16:05;4.05;;;2.25;;
54452;SDS011;40363;52.270;10.546;2023-08-20T11:18:34;3.90;;;1.85;;
54452;SDS011;40363;52.270;10.546;2023-08-20T11:21:01;2.95;;;1.90;;
54452;SDS011;40363;52.270;10.546;2023-08-20T11:23:28;3.42;;;2.33;;
54452;SDS011;40363;52.270;10.546;2023-08-20T11:25:55;5.28;;;2.67;;
54452;SDS011;40363;52.270;10.546;2023-08-20T11:28:22;4.05;;;2.05;;
54452;SDS011;40363;52.270;10.546;2023-08-20T11:30:50;3.90;;;2.28;;
54452;SDS011;40363;52.270;10.546;2023-08-20T11:33:18;7.15;;;2.42;;
54452;SDS011;40363;52.270;10.546;2023-08-20T11:35:46;4.55;;;2.70;;
54452;SDS011;40363;52.270;10.546;2023-08-20T11:38:13;4.30;;;2.13;;
54452;SDS011;40363;52.270;10.546;2023-08-20T11:40:40;3.40;;;2.40;;
54452;SDS011;40363;52.270;10.546;2023-08-20T11:43:07;5.15;;;2.13;;
54452;SDS011;40363;52.270;10.546;2023-08-20T11:45:43;3.38;;;1.83;;
54452;SDS011;40363;52.270;10.546;2023-08-20T11:48:12;3.08;;;1.98;;
54452;SDS011;40363;52.270;10.546;2023-08-20T11:50:40;4.28;;;2.08;;
54452;SDS011;40363;52.270;10.546;2023-08-20T11:53:08;2.40;;;1.90;;
54452;SDS011;40363;52.270;10.546;2023-08-20T11:55:35;3.25;;;1.90;;
54452;SDS011;40363;52.270;10.546;2023-08-20T11:58:04;3.10;;;2.35;;
54452;SDS011;40363;52.270;10.546;2023-08-20T12:00:31;3.08;;;2.08;;
54452;SDS011;40363;52.270;10.546;2023-08-20T12:02:58;3.35;;;1.92;;
54452;SDS011;40363;52.270;10.546;2023-08-20T12:05:28;3.85;;;2.30;;
54452;SDS011;40363;52.270;10.546;2023-08-20T12:07:56;4.07;;;2.60;;
54452;SDS011;40363;52.270;10.546;2023-08-20T12:10:25;3.28;;;2.20;;
54452;SDS011;40363;52.270;10.546;2023-08-20T12:12:53;4.28;;;1.90;;
54452;SDS011;40363;52.270;10.546;2023-08-20T12:15:20;3.70;;;2.45;;
54452;SDS011;40363;52.270;10.546;2023-08-20T12:18:01;4.00;;;2.47;;
54452;SDS011;40363;52.270;10.546;2023-08-20T12:20:30;4.05;;;2.22;;
54452;SDS011;40363;52.270;10.546;2023-08-20T12:23:00;3.60;;;2.60;;
54452;SDS011;40363;52.270;10.546;2023-08-20T12:25:29;4.43;;;2.55;;
54452;SDS011;40363;52.270;10.546;2023-08-20T12:27:56;3.65;;;2.42;;
54452;SDS011;40363;52.270;10.546;2023-08-20T12:30:23;4.15;;;2.60;;
54452;SDS011;40363;52.270;10.546;2023-08-20T12:32:50;4.82;;;2.22;;
54452;SDS011;40363;52.270;10.546;2023-08-20T12:35:16;3.13;;;2.53;;
54452;SDS011;40363;52.270;10.546;2023-08-20T12:37:43;3.38;;;2.30;;
54452;SDS011;40363;52.270;10.546;2023-08-20T12:40:12;5.20;;;2.55;;
54452;SDS011;40363;52.270;10.546;2023-08-20T12:42:38;4.57;;;3.00;;
54452;SDS011;40363;52.270;10.546;2023-08-20T12:45:05;4.93;;;2.42;;
54452;SDS011;40363;52.270;10.546;2023-08-20T12:47:33;3.22;;;2.47;;
54452;SDS011;40363;52.270;10.546;2023-08-20T12:50:00;4.20;;;2.75;;
54452;SDS011;40363;52.270;10.546;2023-08-20T12:52:29;4.22;;;2.80;;
54452;SDS011;40363;52.270;10.546;2023-08-20T12:54:56;3.35;;;2.30;;
54452;SDS011;40363;52.270;10.546;2023-08-20T12:57:24;4.00;;;2.05;;
54452;SDS011;40363;52.270;10.546;2023-08-20T12:59:51;3.55;;;2.50;;
54452;SDS011;40363;52.270;10.546;2023-08-20T13:02:17;4.45;;;2.28;;
54452;SDS011;40363;52.270;10.546;2023-08-20T13:04:45;11.20;;;2.80;;
54452;SDS011;40363;52.270;10.546;2023-08-20T13:07:12;4.03;;;2.58;;
54452;SDS011;40363;52.270;10.546;2023-08-20T13:09:39;3.28;;;2.50;;
54452;SDS011;40363;52.270;10.546;2023-08-20T13:12:07;3.58;;;2.30;;
54452;SDS011;40363;52.270;10.546;2023-08-20T13:14:39;3.65;;;2.90;;
54452;SDS011;40363;52.270;10.546;2023-08-20T13:17:07;5.00;;;2.38;;
54452;SDS011;40363;52.270;10.546;2023-08-20T13:19:35;3.20;;;2.17;;
54452;SDS011;40363;52.270;10.546;2023-08-20T13:22:01;3.95;;;2.38;;
54452;SDS011;40363;52.270;10.546;2023-08-20T13:24:28;3.38;;;2.53;;
54452;SDS011;40363;52.270;10.546;2023-08-20T13:26:55;2.95;;;2.30;;
54452;SDS011;40363;52.270;10.546;2023-08-20T13:29:21;3.90;;;2.55;;
54452;SDS011;40363;52.270;10.546;2023-08-20T13:31:49;4.85;;;2.30;;
54452;SDS011;40363;52.270;10.546;2023-08-20T13:34:16;5.35;;;2.17;;
54452;SDS011;40363;52.270;10.546;2023-08-20T13:36:42;4.97;;;2.88;;
54452;SDS011;40363;52.270;10.546;2023-08-20T13:39:09;3.78;;;2.63;;
54452;SDS011;40363;52.270;10.546;2023-08-20T13:41:38;4.57;;;2.33;;
54452;SDS011;40363;52.270;10.546;2023-08-20T13:44:06;2.75;;;2.20;;
54452;SDS011;40363;52.270;10.546;2023-08-20T13:46:33;5.93;;;2.78;;
54452;SDS011;40363;52.270;10.546;2023-08-20T13:49:01;4.95;;;2.40;;
54452;SDS011;40363;52.270;10.546;2023-08-20T13:51:29;3.90;;;2.67;;
54452;SDS011;40363;52.270;10.546;2023-08-20T13:53:55;3.85;;;2.63;;
54452;SDS011;40363;52.270;10.546;2023-08-20T13:56:23;3.13;;;2.60;;
54452;SDS011;40363;52.270;10.546;2023-08-20T13:58:50;6.35;;;2.45;;
54452;SDS011;40363;52.270;10.546;2023-08-20T14:01:17;4.95;;;2.53;;
54452;SDS011;40363;52.270;10.546;2023-08-20T14:03:44;4.30;;;2.70;;
54452;SDS011;40363;52.270;10.546;2023-08-20T14:06:12;5.00;;;2.10;;
54452;SDS011;40363;52.270;10.546;2023-08-20T14:08:39;3.10;;;2.53;;
54452;SDS011;40363;52.270;10.546;2023-08-20T14:11:05;3.85;;;2.15;;
54452;SDS011;40363;52.270;10.546;2023-08-20T14:13:32;5.20;;;2.80;;
54452;SDS011;40363;52.270;10.546;2023-08-20T14:15:58;4.18;;;2.30;;
54452;SDS011;40363;52.270;10.546;2023-08-20T14:18:26;4.28;;;2.10;;
54452;SDS011;40363;52.270;10.546;2023-08-20T14:20:52;4.00;;;2.60;;
54452;SDS011;40363;52.270;10.546;2023-08-20T14:23:21;4.80;;;2.72;;
54452;SDS011;40363;52.270;10.546;2023-08-20T14:25:47;2.88;;;2.08;;
54452;SDS011;40363;52.270;10.546;2023-08-20T14:28:14;3.38;;;2.28;;
54452;SDS011;40363;52.270;10.546;2023-08-20T14:30:41;4.80;;;2.33;;
54452;SDS011;40363;52.270;10.546;2023-08-20T14:33:08;4.55;;;2.15;;
54452;SDS011;40363;52.270;10.546;2023-08-20T14:35:34;4.38;;;2.72;;
54452;SDS011;40363;52.270;10.546;2023-08-20T14:38:01;3.50;;;2.35;;
54452;SDS011;40363;52.270;10.546;2023-08-20T14:40:29;5.88;;;2.53;;
54452;SDS011;40363;52.270;10.546;2023-08-20T14:42:56;3.92;;;2.28;;
54452;SDS011;40363;52.270;10.546;2023-08-20T14:45:23;3.25;;;2.35;;
54452;SDS011;40363;52.270;10.546;2023-08-20T14:47:50;5.07;;;2.70;;